Terminal Aerodrome Forecast
Issued by NWS

Home | Current Version | Previous Version | Text Only | Print | Product List | Glossary On
Versions: 1 2 3 4 5 6 7 8 9 10 11 12 13 14 15 16 17 18 19 20 21 22 23 24
000
FTUS41 KBUF 251100
TAFIAG
TAF
KIAG 251138Z 2512/2612 24023G38KT P6SM OVC018
     FM251600 25020G35KT P6SM BKN025
     FM252100 25018G29KT P6SM BKN030
     FM260600 24019G29KT P6SM SCT030
     FM261100 23012G20KT P6SM SCT025=

USA.gov is the U.S. government's official web portal to all federal, state and local government web resources and services.